createdAt,value
2017-04-10T00:00:41.219Z,46.70
2017-04-10T00:01:41.218Z,46.40
2017-04-10T00:02:41.180Z,46.20
2017-04-10T00:03:41.148Z,46.10
2017-04-10T00:04:41.087Z,46.10
2017-04-10T00:05:41.056Z,46.00
2017-04-10T00:06:41.030Z,45.80
2017-04-10T00:07:41.715Z,46.00
2017-04-10T00:08:41.652Z,46.60
2017-04-10T00:09:42.376Z,46.20
2017-04-10T00:10:43.072Z,46.20
2017-04-10T00:11:43.045Z,46.20
2017-04-10T00:12:43.088Z,46.30
2017-04-10T00:13:43.767Z,46.70
2017-04-10T00:14:43.771Z,46.30
2017-04-10T00:15:43.699Z,46.30
2017-04-10T00:16:43.683Z,46.30
2017-04-10T00:17:43.648Z,46.40
2017-04-10T00:18:44.393Z,46.70
2017-04-10T00:19:45.092Z,46.40
2017-04-10T00:20:45.053Z,46.40
2017-04-10T00:21:45.017Z,46.40
2017-04-10T00:22:45.730Z,46.60
2017-04-10T00:23:46.437Z,47.70
2017-04-10T00:24:46.377Z,47.00
2017-04-10T00:25:46.381Z,47.30
2017-04-10T00:26:47.040Z,47.20
2017-04-10T00:27:47.080Z,47.40
2017-04-10T00:28:47.099Z,47.60
2017-04-10T00:30:47.115Z,47.90
2017-04-10T00:31:47.775Z,48.90
2017-04-10T00:32:47.688Z,48.40
2017-04-10T00:33:47.615Z,48.40
2017-04-10T00:34:47.565Z,48.70
2017-04-10T00:35:48.222Z,48.30
2017-04-10T00:36:48.140Z,49.00
2017-04-10T00:37:48.067Z,49.00
2017-04-10T00:38:48.013Z,49.10
2017-04-10T00:39:47.948Z,49.20
2017-04-10T00:40:47.869Z,49.30
2017-04-10T00:41:47.829Z,49.70
2017-04-10T00:42:47.830Z,49.90
2017-04-10T00:43:47.764Z,50.10
2017-04-10T00:44:47.724Z,50.10
2017-04-10T00:45:47.679Z,50.40
2017-04-10T00:46:47.599Z,50.40
2017-04-10T00:47:47.527Z,50.60
2017-04-10T00:48:47.448Z,50.80
2017-04-10T00:49:48.329Z,50.90
2017-04-10T00:50:48.231Z,50.90
2017-04-10T00:51:48.193Z,51.50
2017-04-10T00:52:48.870Z,51.50
2017-04-10T00:53:48.824Z,51.80
2017-04-10T00:54:48.820Z,52.00
2017-04-10T00:56:49.595Z,52.00
2017-04-10T00:57:49.500Z,52.00
2017-04-10T00:58:50.249Z,52.30
2017-04-10T00:59:50.189Z,52.60
2017-04-10T01:00:50.992Z,52.40
2017-04-10T01:01:50.931Z,52.80
2017-04-10T01:02:50.930Z,52.80
2017-04-10T01:03:51.631Z,53.00
2017-04-10T01:04:51.648Z,52.90
2017-04-10T01:05:52.360Z,53.10
2017-04-10T01:06:53.060Z,53.20
2017-04-10T01:07:52.987Z,53.20
2017-04-10T01:08:53.668Z,52.90
2017-04-10T01:09:53.619Z,53.40
2017-04-10T01:10:54.281Z,53.40
2017-04-10T01:11:54.204Z,53.40
2017-04-10T01:12:54.246Z,54.10
2017-04-10T01:13:54.373Z,53.60
2017-04-10T01:14:54.372Z,53.60
2017-04-10T01:15:55.364Z,53.50
2017-04-10T01:16:55.307Z,53.60
2017-04-10T01:17:55.960Z,53.70
2017-04-10T01:18:55.899Z,53.60
2017-04-10T01:19:55.835Z,53.30
2017-04-10T01:20:56.549Z,53.60
2017-04-10T01:23:56.872Z,53.40
2017-04-10T01:24:56.903Z,53.20
2017-04-10T01:25:57.580Z,53.30
2017-04-10T01:26:57.520Z,53.00
2017-04-10T01:28:57.629Z,53.00
2017-04-10T01:29:57.599Z,53.20
2017-04-10T01:30:57.611Z,53.00
2017-04-10T01:31:57.628Z,53.10
2017-04-10T01:32:57.647Z,53.10
2017-04-10T01:33:57.612Z,53.00
2017-04-10T01:34:57.724Z,53.00
2017-04-10T01:35:57.657Z,53.10
2017-04-10T01:36:57.610Z,53.10
2017-04-10T01:37:57.570Z,53.00
2017-04-10T01:38:57.521Z,53.10
2017-04-10T01:39:57.521Z,53.00
2017-04-10T01:40:58.204Z,53.00
2017-04-10T01:41:58.180Z,53.00
2017-04-10T01:42:58.235Z,53.00
2017-04-10T01:43:58.188Z,53.10
2017-04-10T01:44:58.168Z,53.10
2017-04-10T01:45:58.860Z,53.10
2017-04-10T01:46:58.810Z,53.10
2017-04-10T01:47:58.788Z,53.20
2017-04-10T01:48:59.497Z,53.60
2017-04-10T01:49:59.433Z,53.20
2017-04-10T01:51:00.107Z,53.30
2017-04-10T01:52:00.055Z,52.90
2017-04-10T01:53:00.785Z,53.50
2017-04-10T01:54:01.500Z,53.40
2017-04-10T01:55:02.218Z,53.40
2017-04-10T01:56:03.064Z,53.40
2017-04-10T01:57:03.068Z,53.60
2017-04-10T01:58:03.778Z,53.50
2017-04-10T01:59:04.489Z,53.60
2017-04-10T02:00:04.477Z,53.50
2017-04-10T02:01:04.422Z,53.60
2017-04-10T02:02:05.096Z,53.60
2017-04-10T02:03:05.149Z,53.60
2017-04-10T02:04:05.795Z,53.30
2017-04-10T02:05:05.760Z,53.70
2017-04-10T02:06:06.506Z,53.60
2017-04-10T02:07:07.703Z,53.50
2017-04-10T02:08:07.699Z,53.50
2017-04-10T02:09:07.743Z,53.50
2017-04-10T02:10:08.460Z,53.60
2017-04-10T02:11:09.156Z,53.70
2017-04-10T02:12:09.105Z,53.60
2017-04-10T02:13:09.792Z,54.00
2017-04-10T02:14:09.706Z,53.90
2017-04-10T02:15:10.457Z,53.80
2017-04-10T02:16:11.135Z,53.90
2017-04-10T02:17:11.054Z,54.00
2017-04-10T02:18:10.989Z,53.90
2017-04-10T02:19:10.900Z,54.00
2017-04-10T02:20:10.988Z,54.20
2017-04-10T02:21:11.711Z,54.40
2017-04-10T02:22:12.369Z,54.60
2017-04-10T02:23:12.304Z,54.20
2017-04-10T02:24:12.266Z,54.10
2017-04-10T02:25:12.232Z,54.60
2017-04-10T02:26:12.607Z,54.30
2017-04-10T02:27:12.541Z,54.30
2017-04-10T02:28:12.480Z,54.40
2017-04-10T02:29:13.158Z,54.50
2017-04-10T02:30:13.101Z,54.60
2017-04-10T02:31:13.793Z,54.50
2017-04-10T02:32:13.736Z,54.60
2017-04-10T02:33:14.408Z,54.50
2017-04-10T02:34:14.337Z,54.10
2017-04-10T02:35:14.281Z,54.50
2017-04-10T02:36:14.202Z,54.60
2017-04-10T02:37:14.112Z,54.40
2017-04-10T02:38:14.012Z,54.30
2017-04-10T02:39:13.983Z,54.00
2017-04-10T02:40:14.671Z,54.40
2017-04-10T02:41:14.582Z,54.30
2017-04-10T02:42:14.480Z,54.00
2017-04-10T02:43:14.402Z,54.00
2017-04-10T02:44:14.368Z,54.40
2017-04-10T02:45:14.360Z,54.40
2017-04-10T02:46:14.279Z,54.40
2017-04-10T02:47:14.218Z,54.40
2017-04-10T02:48:14.263Z,54.50
2017-04-10T02:49:14.906Z,54.40
2017-04-10T02:50:14.864Z,54.20
2017-04-10T02:52:14.885Z,54.30
2017-04-10T02:53:15.545Z,55.00
2017-04-10T02:54:15.469Z,54.40
2017-04-10T02:55:15.416Z,54.20
2017-04-10T02:56:16.129Z,54.80
2017-04-10T02:57:16.057Z,54.40
2017-04-10T02:58:16.811Z,54.60
2017-04-10T02:59:16.719Z,54.50
2017-04-10T03:00:16.656Z,54.40
2017-04-10T03:01:16.620Z,54.20
2017-04-10T03:02:16.539Z,54.60
2017-04-10T03:03:16.463Z,54.80
2017-04-10T03:04:16.364Z,54.60
2017-04-10T03:05:16.330Z,54.70
2017-04-10T03:06:16.263Z,54.80
2017-04-10T03:07:16.188Z,54.80
2017-04-10T03:08:16.189Z,54.90
2017-04-10T03:09:16.098Z,54.80
2017-04-10T03:10:16.056Z,54.80
2017-04-10T03:11:16.008Z,54.80
2017-04-10T03:12:15.984Z,54.30
2017-04-10T03:13:15.891Z,54.50
2017-04-10T03:14:15.823Z,54.80
2017-04-10T03:15:15.749Z,54.40
2017-04-10T03:16:16.476Z,54.30
2017-04-10T03:17:17.170Z,54.60
2017-04-10T03:18:17.125Z,54.40
2017-04-10T03:19:17.776Z,54.40
2017-04-10T03:20:17.712Z,54.10
2017-04-10T03:21:17.672Z,53.80
2017-04-10T03:22:18.322Z,53.70
2017-04-10T03:23:18.237Z,53.50
2017-04-10T03:24:18.168Z,53.40
2017-04-10T03:25:18.872Z,53.40
2017-04-10T03:26:18.788Z,53.40
2017-04-10T03:27:19.475Z,53.30
2017-04-10T03:28:19.405Z,53.50
2017-04-10T03:29:19.329Z,53.30
2017-04-10T03:30:20.004Z,53.40
2017-04-10T03:31:19.945Z,53.60
2017-04-10T03:33:20.744Z,53.60
2017-04-10T03:34:20.896Z,53.40
2017-04-10T03:36:20.984Z,53.90
2017-04-10T03:37:20.966Z,53.80
2017-04-10T03:38:20.967Z,53.70
2017-04-10T03:39:20.928Z,53.80
2017-04-10T03:40:21.646Z,53.90
2017-04-10T03:43:21.804Z,53.70
2017-04-10T03:44:21.748Z,53.90
2017-04-10T03:45:21.739Z,54.20
2017-04-10T03:46:21.671Z,54.00
2017-04-10T03:47:21.688Z,54.00
2017-04-10T03:48:21.646Z,54.30
2017-04-10T03:49:21.611Z,54.40
2017-04-10T03:50:22.353Z,54.50
2017-04-10T03:51:23.052Z,54.40
2017-04-10T03:52:23.752Z,54.30
2017-04-10T03:53:23.749Z,54.00
2017-04-10T03:54:23.691Z,54.50
2017-04-10T03:55:24.416Z,54.60
2017-04-10T03:56:25.105Z,54.40
2017-04-10T03:57:25.112Z,54.60
2017-04-10T03:58:25.170Z,55.20
2017-04-10T03:59:25.857Z,54.50
2017-04-10T04:00:25.827Z,54.60
2017-04-10T04:01:25.829Z,54.80
2017-04-10T04:02:25.771Z,54.80
2017-04-10T04:03:25.703Z,54.70
2017-04-10T04:04:26.371Z,55.00
2017-04-10T04:05:26.357Z,55.00
2017-04-10T04:06:26.326Z,55.00
2017-04-10T04:07:27.003Z,55.00
2017-04-10T04:08:26.935Z,55.30
2017-04-10T04:09:26.883Z,55.60
2017-04-10T04:10:26.902Z,55.50
2017-04-10T04:11:26.824Z,55.50
2017-04-10T04:12:26.772Z,55.60
2017-04-10T04:14:26.833Z,55.90
2017-04-10T04:15:26.798Z,56.00
2017-04-10T04:16:27.532Z,55.60
2017-04-10T04:17:28.245Z,56.10
2017-04-10T04:18:28.922Z,56.20
2017-04-10T04:19:28.916Z,56.30
2017-04-10T04:20:28.838Z,56.40
2017-04-10T04:21:28.795Z,56.40
2017-04-10T04:22:29.507Z,56.50
2017-04-10T04:23:30.291Z,56.80
2017-04-10T04:24:30.361Z,56.80
2017-04-10T04:25:31.007Z,56.90
2017-04-10T04:26:30.988Z,57.10
2017-04-10T04:27:30.951Z,57.00
2017-04-10T04:28:30.914Z,57.10
2017-04-10T04:29:30.860Z,57.10
2017-04-10T04:30:30.796Z,57.20
2017-04-10T04:31:31.559Z,57.20
2017-04-10T04:32:31.528Z,57.50
2017-04-10T04:33:32.214Z,57.60
2017-04-10T04:34:32.146Z,57.70
2017-04-10T04:35:32.919Z,57.80
2017-04-10T04:36:32.908Z,57.70
2017-04-10T04:37:32.846Z,58.10
2017-04-10T04:38:32.867Z,58.10
2017-04-10T04:39:32.849Z,58.10
2017-04-10T04:40:32.803Z,58.20
2017-04-10T04:41:33.570Z,58.30
2017-04-10T04:42:33.520Z,58.40
2017-04-10T04:43:33.446Z,58.60
2017-04-10T04:44:34.159Z,58.60
2017-04-10T04:46:34.219Z,58.50
2017-04-10T04:47:40.875Z,58.60
2017-04-10T04:48:40.820Z,58.60
2017-04-10T04:49:40.756Z,59.10
2017-04-10T04:50:41.448Z,58.70
2017-04-10T04:51:41.398Z,59.10
2017-04-10T04:52:41.328Z,59.50
2017-04-10T04:53:41.231Z,59.20
2017-04-10T04:54:41.176Z,59.20
2017-04-10T04:55:41.116Z,59.40
2017-04-10T04:56:41.091Z,59.40
2017-04-10T04:57:41.017Z,59.40
2017-04-10T04:58:41.756Z,59.40
2017-04-10T04:59:42.424Z,59.50
2017-04-10T05:00:42.404Z,59.60
2017-04-10T05:01:42.424Z,59.60
2017-04-10T05:02:42.401Z,59.70
2017-04-10T05:03:42.376Z,59.60
2017-04-10T05:04:43.084Z,59.60
2017-04-10T05:05:43.033Z,59.70
2017-04-10T05:06:43.033Z,59.80
2017-04-10T05:07:43.014Z,59.90
2017-04-10T05:08:42.951Z,59.60
2017-04-10T05:09:42.896Z,59.70
2017-04-10T05:10:49.001Z,60.00
2017-04-10T05:11:49.717Z,60.10
2017-04-10T05:12:50.451Z,60.00
2017-04-10T05:13:51.132Z,60.20
2017-04-10T05:14:51.091Z,60.10
2017-04-10T05:15:51.027Z,60.40
2017-04-10T05:16:51.040Z,60.40
2017-04-10T05:17:50.979Z,60.50
2017-04-10T05:18:51.716Z,60.30
2017-04-10T05:19:52.419Z,59.80
2017-04-10T05:20:53.135Z,60.40
2017-04-10T05:21:53.884Z,60.50
2017-04-10T05:22:53.811Z,60.70
2017-04-10T05:23:53.755Z,61.00
2017-04-10T05:24:53.721Z,61.10
2017-04-10T05:25:53.686Z,61.30
2017-04-10T05:26:54.414Z,61.00
2017-04-10T05:27:55.143Z,61.00
2017-04-10T05:28:55.865Z,61.00
2017-04-10T05:29:56.585Z,61.00
2017-04-10T05:30:57.300Z,61.00
2017-04-10T05:31:58.036Z,62.10
2017-04-10T05:32:59.712Z,61.20
2017-04-10T05:33:59.676Z,61.20
2017-04-10T05:35:00.373Z,61.20
2017-04-10T05:36:00.372Z,61.50
2017-04-10T05:37:00.363Z,61.00
2017-04-10T05:38:00.339Z,61.30
2017-04-10T05:39:00.304Z,61.10
2017-04-10T05:40:00.239Z,61.50
2017-04-10T05:41:00.960Z,61.70
2017-04-10T05:42:01.662Z,61.50
2017-04-10T05:43:01.592Z,62.00
2017-04-10T05:44:02.316Z,62.10
2017-04-10T05:45:03.079Z,62.40
2017-04-10T05:46:03.021Z,62.50
2017-04-10T05:47:02.966Z,62.80
2017-04-10T05:48:02.928Z,63.20
2017-04-10T05:49:02.932Z,63.50
2017-04-10T05:50:02.903Z,64.00
2017-04-10T05:51:03.357Z,63.90
2017-04-10T05:52:04.148Z,63.90
2017-04-10T05:53:04.120Z,64.30
2017-04-10T05:54:04.835Z,64.20
2017-04-10T05:55:05.560Z,64.60
2017-04-10T05:56:06.257Z,64.40
2017-04-10T05:57:06.312Z,64.30
2017-04-10T05:58:06.274Z,64.40
2017-04-10T05:59:06.188Z,64.60
2017-04-10T06:00:06.887Z,64.60
2017-04-10T06:01:06.912Z,64.80
2017-04-10T06:02:06.871Z,65.00
2017-04-10T06:03:06.849Z,65.10
2017-04-10T06:04:07.548Z,64.70
2017-04-10T06:05:07.500Z,64.90
2017-04-10T06:06:07.454Z,64.50
2017-04-10T06:07:07.400Z,64.90
2017-04-10T06:08:07.399Z,64.50
2017-04-10T06:09:07.360Z,64.40
2017-04-10T06:10:07.313Z,64.50
2017-04-10T06:11:07.282Z,65.40
2017-04-10T06:12:07.209Z,65.40
2017-04-10T06:13:08.048Z,64.50
2017-04-10T06:14:08.872Z,64.40
2017-04-10T06:15:09.700Z,64.10
2017-04-10T06:16:10.386Z,64.30
2017-04-10T06:17:10.327Z,64.00
2017-04-10T06:18:10.332Z,64.60
2017-04-10T06:19:10.292Z,64.30
2017-04-10T06:20:10.248Z,64.20
2017-04-10T06:21:10.201Z,64.60
2017-04-10T06:22:10.429Z,64.50
2017-04-10T06:23:10.427Z,64.70
2017-04-10T06:24:10.380Z,64.40
2017-04-10T06:25:10.300Z,64.70
2017-04-10T06:26:10.354Z,64.40
2017-04-10T06:27:10.300Z,64.50
2017-04-10T06:28:10.413Z,64.40
2017-04-10T06:29:10.370Z,64.90
2017-04-10T06:30:10.320Z,64.50
2017-04-10T06:31:10.284Z,65.00
2017-04-10T06:32:10.252Z,65.00
2017-04-10T06:33:10.227Z,65.10
2017-04-10T06:34:10.971Z,65.40
2017-04-10T06:35:10.949Z,65.90
2017-04-10T06:36:11.652Z,65.90
2017-04-10T06:37:11.662Z,66.20
2017-04-10T06:39:11.809Z,65.80
2017-04-10T06:40:12.800Z,66.00
2017-04-10T06:41:12.842Z,66.30
2017-04-10T06:42:12.824Z,66.20
2017-04-10T06:43:13.558Z,66.30
2017-04-10T06:44:14.250Z,66.10
2017-04-10T06:45:14.471Z,66.40
2017-04-10T06:46:14.431Z,66.20
2017-04-10T06:47:14.395Z,66.50
2017-04-10T06:48:15.103Z,66.20
2017-04-10T06:49:15.094Z,66.50
2017-04-10T06:50:15.033Z,66.60
2017-04-10T06:51:15.723Z,67.70
2017-04-10T06:52:15.679Z,66.90
2017-04-10T06:53:15.642Z,66.90
2017-04-10T06:54:15.671Z,66.80
2017-04-10T06:55:16.392Z,67.00
2017-04-10T06:56:17.100Z,66.70
2017-04-10T06:57:17.060Z,66.60
2017-04-10T06:58:17.155Z,66.40
2017-04-10T06:59:17.858Z,66.50
2017-04-10T07:00:18.564Z,66.70
2017-04-10T07:02:18.634Z,66.60
2017-04-10T07:03:18.688Z,66.70
2017-04-10T07:04:19.433Z,67.30
2017-04-10T07:05:19.324Z,66.80
2017-04-10T07:06:20.067Z,66.50
2017-04-10T07:07:19.984Z,67.10
2017-04-10T07:08:19.939Z,67.10
2017-04-10T07:09:19.852Z,66.80
2017-04-10T07:10:20.068Z,66.40
2017-04-10T07:11:20.039Z,67.10
2017-04-10T07:12:20.028Z,66.10
2017-04-10T07:13:19.968Z,66.20
2017-04-10T07:14:19.977Z,66.70
2017-04-10T07:15:19.947Z,67.20
2017-04-10T07:16:19.879Z,67.50
2017-04-10T07:17:19.843Z,68.20
2017-04-10T07:18:19.781Z,68.50
2017-04-10T07:19:19.735Z,68.20
2017-04-10T07:20:20.439Z,68.50
2017-04-10T07:21:20.368Z,68.20
2017-04-10T07:22:21.047Z,67.80
2017-04-10T07:23:21.009Z,68.50
2017-04-10T07:24:21.724Z,67.50
2017-04-10T07:25:22.411Z,67.30
2017-04-10T07:26:22.361Z,67.30
2017-04-10T07:27:23.036Z,67.50
2017-04-10T07:28:22.978Z,67.50
2017-04-10T07:29:23.800Z,68.10
2017-04-10T07:30:24.496Z,67.90
2017-04-10T07:31:24.422Z,66.80
2017-04-10T07:32:25.096Z,67.20
2017-04-10T07:33:25.045Z,67.30
2017-04-10T07:34:25.744Z,67.20
2017-04-10T07:35:25.681Z,67.40
2017-04-10T07:36:26.421Z,67.10
2017-04-10T07:37:27.096Z,67.30
2017-04-10T07:38:27.020Z,67.80
2017-04-10T07:39:27.724Z,68.00
2017-04-10T07:40:27.639Z,67.90
2017-04-10T07:42:27.676Z,68.70
2017-04-10T07:43:28.373Z,68.60
2017-04-10T07:44:28.331Z,69.10
2017-04-10T07:45:28.288Z,68.60
2017-04-10T07:46:28.253Z,68.70
2017-04-10T07:47:28.194Z,68.50
2017-04-10T07:48:28.152Z,68.40
2017-04-10T07:49:28.124Z,68.30
2017-04-10T07:50:28.814Z,68.60
2017-04-10T07:51:28.749Z,69.00
2017-04-10T07:53:28.901Z,68.90
2017-04-10T07:54:28.893Z,68.30
2017-04-10T07:55:29.599Z,68.50
2017-04-10T07:56:30.299Z,68.30
2017-04-10T07:57:30.265Z,68.50
2017-04-10T07:58:30.231Z,68.40
2017-04-10T07:59:30.947Z,67.90
2017-04-10T08:00:30.930Z,67.90
2017-04-10T08:01:30.988Z,67.40
2017-04-10T08:02:31.824Z,67.20
2017-04-10T08:03:31.787Z,66.70
2017-04-10T08:04:33.131Z,66.20
2017-04-10T08:05:33.107Z,64.50
2017-04-10T08:06:33.056Z,63.60
2017-04-10T08:07:33.754Z,63.70
2017-04-10T08:08:33.772Z,62.20
2017-04-10T08:09:33.732Z,61.90
2017-04-10T08:10:33.697Z,61.90
2017-04-10T08:11:34.359Z,61.20
2017-04-10T08:12:34.286Z,60.50
2017-04-10T08:13:34.253Z,60.40
2017-04-10T08:14:34.212Z,60.30
2017-04-10T08:15:34.942Z,60.70
2017-04-10T08:18:35.136Z,61.20
2017-04-10T08:19:35.450Z,61.20
2017-04-10T08:20:35.462Z,61.70
2017-04-10T08:21:35.424Z,61.60
2017-04-10T08:22:35.396Z,62.50
2017-04-10T08:23:35.293Z,62.20
2017-04-10T08:24:35.362Z,63.10
2017-04-10T08:25:35.367Z,62.50
2017-04-10T08:26:35.324Z,63.10
2017-04-10T08:28:36.120Z,63.40
2017-04-10T08:29:36.072Z,62.90
2017-04-10T08:30:37.052Z,62.50
2017-04-10T08:31:36.973Z,62.50
2017-04-10T08:32:37.000Z,62.80
2017-04-10T08:33:36.952Z,62.90
2017-04-10T08:34:36.916Z,62.60
2017-04-10T08:35:37.688Z,63.10
2017-04-10T08:36:37.613Z,63.10
2017-04-10T08:37:37.552Z,62.90
2017-04-10T08:38:38.220Z,62.80
2017-04-10T08:39:38.161Z,63.40
2017-04-10T08:40:38.090Z,63.60
2017-04-10T08:41:38.780Z,63.70
2017-04-10T08:42:38.916Z,63.30
2017-04-10T08:43:39.647Z,63.90
2017-04-10T08:44:40.372Z,63.90
2017-04-10T08:45:41.159Z,64.00
2017-04-10T08:46:41.124Z,64.40
2017-04-10T08:47:41.028Z,64.40
2017-04-10T08:48:40.961Z,64.80
2017-04-10T08:49:40.898Z,64.60
2017-04-10T08:50:40.840Z,65.00
2017-04-10T08:51:41.520Z,65.00
2017-04-10T08:53:41.616Z,64.80
2017-04-10T08:54:41.566Z,64.30
2017-04-10T08:55:42.239Z,65.00
2017-04-10T08:56:42.196Z,64.10
2017-04-10T08:57:42.850Z,64.10
2017-04-10T08:58:42.804Z,63.40
2017-04-10T08:59:42.801Z,62.80
2017-04-10T09:00:42.823Z,63.00
2017-04-10T09:01:43.540Z,62.10
2017-04-10T09:03:44.288Z,62.60
2017-04-10T09:04:45.034Z,62.60
2017-04-10T09:05:45.040Z,60.90
2017-04-10T09:06:45.029Z,60.10
2017-04-10T09:07:45.771Z,60.00
2017-04-10T09:08:45.792Z,60.10
2017-04-10T09:09:45.888Z,59.90
2017-04-10T09:10:45.872Z,60.10
2017-04-10T09:11:46.587Z,60.10
2017-04-10T09:12:47.348Z,60.20
2017-04-10T09:13:47.304Z,60.30
2017-04-10T09:14:47.287Z,60.30
2017-04-10T09:15:47.269Z,60.60
2017-04-10T09:16:47.263Z,60.40
2017-04-10T09:17:47.213Z,60.50
2017-04-10T09:18:47.195Z,60.40
2017-04-10T09:19:47.172Z,60.40
2017-04-10T09:20:47.924Z,60.20
2017-04-10T09:21:47.892Z,60.40
2017-04-10T09:22:48.601Z,60.20
2017-04-10T09:23:48.536Z,60.00
2017-04-10T09:24:48.519Z,60.40
2017-04-10T09:25:49.355Z,60.10
2017-04-10T09:26:49.342Z,60.70
2017-04-10T09:27:49.316Z,60.40
2017-04-10T09:28:49.264Z,60.50
2017-04-10T09:30:48.577Z,60.90
2017-04-10T09:31:49.265Z,61.10
2017-04-10T09:32:49.234Z,60.40
2017-04-10T09:33:49.295Z,60.90
2017-04-10T09:34:50.027Z,60.70
2017-04-10T09:35:50.012Z,60.50
2017-04-10T09:36:50.805Z,60.00
2017-04-10T09:37:50.760Z,60.00
2017-04-10T09:38:51.541Z,60.10
2017-04-10T09:39:51.477Z,59.70
2017-04-10T09:41:52.176Z,59.20
2017-04-10T09:42:52.186Z,59.70
2017-04-10T09:43:52.183Z,59.60
2017-04-10T09:44:52.195Z,59.40
2017-04-10T09:45:52.173Z,59.40
2017-04-10T09:46:52.147Z,59.30
2017-04-10T09:47:52.891Z,59.00
2017-04-10T09:48:52.980Z,58.90
2017-04-10T09:50:53.231Z,58.50
2017-04-10T09:51:53.208Z,58.60
2017-04-10T09:53:54.095Z,58.30
2017-04-10T09:54:54.108Z,58.40
2017-04-10T09:55:54.087Z,58.40
2017-04-10T09:56:54.053Z,58.60
2017-04-10T09:57:54.770Z,58.90
2017-04-10T09:58:55.560Z,59.30
2017-04-10T09:59:55.596Z,59.50
2017-04-10T10:00:56.048Z,59.80
2017-04-10T10:01:56.979Z,60.00
2017-04-10T10:02:57.884Z,60.50
2017-04-10T10:03:58.607Z,60.90
2017-04-10T10:04:59.284Z,61.80
2017-04-10T10:05:59.247Z,61.50
2017-04-10T10:06:59.955Z,61.30
2017-04-10T10:09:00.009Z,61.60
2017-04-10T10:10:00.033Z,61.40
2017-04-10T10:11:28.638Z,61.40
2017-04-10T10:12:30.419Z,62.10
2017-04-10T10:13:31.214Z,61.60
2017-04-10T10:14:31.146Z,61.00
2017-04-10T10:15:31.842Z,60.30
2017-04-10T10:16:31.798Z,60.60
2017-04-10T10:17:31.802Z,60.00
2017-04-10T10:18:32.351Z,59.90
2017-04-10T10:19:32.287Z,59.90
2017-04-10T10:20:33.025Z,59.80
2017-04-10T10:21:33.727Z,59.70
2017-04-10T10:22:33.644Z,59.00
2017-04-10T10:23:34.427Z,59.20
2017-04-10T10:24:34.435Z,58.80
2017-04-10T10:25:34.434Z,58.50
2017-04-10T10:26:34.384Z,57.90
2017-04-10T10:28:35.172Z,56.50
2017-04-10T10:29:35.131Z,56.90
2017-04-10T10:30:35.848Z,55.50
2017-04-10T10:31:36.788Z,55.00
2017-04-10T10:32:37.627Z,54.20
2017-04-10T10:33:37.644Z,53.80
2017-04-10T10:34:37.689Z,53.60
2017-04-10T10:35:37.729Z,53.60
2017-04-10T10:36:37.880Z,53.10
2017-04-10T10:37:37.859Z,53.00
2017-04-10T10:38:39.087Z,53.00
2017-04-10T10:39:39.788Z,52.90
2017-04-10T10:40:39.732Z,53.10
2017-04-10T10:41:39.688Z,53.50
2017-04-10T10:42:39.667Z,53.50
2017-04-10T10:43:39.649Z,53.80
2017-04-10T10:44:39.620Z,53.80
2017-04-10T10:45:39.612Z,53.60
2017-04-10T10:46:39.733Z,53.70
2017-04-10T10:47:39.651Z,54.20
2017-04-10T10:48:40.341Z,54.50
2017-04-10T10:49:40.264Z,54.60
2017-04-10T10:50:40.261Z,54.90
2017-04-10T10:51:40.269Z,55.10
2017-04-10T10:52:40.248Z,55.10
2017-04-10T10:53:40.136Z,55.30
2017-04-10T10:54:40.156Z,55.20
2017-04-10T10:55:40.152Z,55.00
2017-04-10T10:56:40.164Z,55.20
2017-04-10T10:57:40.103Z,55.30
2017-04-10T10:58:40.118Z,55.50
2017-04-10T10:59:40.040Z,55.60
2017-04-10T11:00:40.707Z,55.90
2017-04-10T11:01:41.392Z,55.70
2017-04-10T11:02:42.277Z,55.50
2017-04-10T11:03:42.264Z,55.90
2017-04-10T11:04:42.828Z,55.90
2017-04-10T11:05:42.989Z,56.00
2017-04-10T11:06:43.163Z,55.90
2017-04-10T11:07:43.883Z,56.00
2017-04-10T11:08:43.876Z,56.30
2017-04-10T11:09:43.816Z,56.20
2017-04-10T11:11:01.250Z,56.60
2017-04-10T11:12:02.112Z,57.00
2017-04-10T11:13:02.284Z,57.00
2017-04-10T11:14:02.309Z,56.90
2017-04-10T11:15:02.543Z,57.50
2017-04-10T11:16:02.798Z,57.90
2017-04-10T11:17:02.938Z,58.90
2017-04-10T11:18:03.098Z,59.00
2017-04-10T11:19:03.916Z,59.40
2017-04-10T11:20:04.817Z,59.70
2017-04-10T11:21:05.103Z,59.80
2017-04-10T11:22:05.366Z,60.00
2017-04-10T11:23:05.524Z,60.20
2017-04-10T11:24:05.530Z,60.70
2017-04-10T11:25:05.496Z,60.90
2017-04-10T11:26:06.255Z,61.30
2017-04-10T11:27:06.219Z,61.00
2017-04-10T11:28:06.345Z,60.90
2017-04-10T11:29:07.196Z,60.70
2017-04-10T11:30:07.221Z,60.80
2017-04-10T11:31:07.299Z,60.80
2017-04-10T11:32:08.034Z,59.60
2017-04-10T11:33:07.995Z,59.30
2017-04-10T11:34:08.888Z,58.70
2017-04-10T11:35:09.080Z,58.00
2017-04-10T11:36:10.011Z,57.20
2017-04-10T11:37:09.948Z,56.10
2017-04-10T11:38:09.976Z,55.40
2017-04-10T11:39:09.937Z,54.10
2017-04-10T11:40:10.047Z,51.50
2017-04-10T11:41:10.094Z,48.90
2017-04-10T11:42:10.162Z,48.20
2017-04-10T11:43:11.405Z,46.40
2017-04-10T11:44:12.015Z,45.10
2017-04-10T11:45:12.026Z,43.40
2017-04-10T11:46:12.109Z,41.10
2017-04-10T11:47:13.103Z,38.80
2017-04-10T11:48:13.643Z,37.90
2017-04-10T11:49:13.666Z,37.50
2017-04-10T11:50:13.624Z,36.50
2017-04-10T11:51:13.652Z,36.10
2017-04-10T11:53:13.805Z,35.90
2017-04-10T11:54:13.873Z,35.90
2017-04-10T11:55:13.840Z,36.20
2017-04-10T11:56:13.836Z,36.60
2017-04-10T11:57:13.827Z,37.20
2017-04-10T11:58:13.857Z,38.00
2017-04-10T11:59:13.911Z,38.80
2017-04-10T12:00:13.950Z,39.70
2017-04-10T12:01:15.429Z,40.40
2017-04-10T12:02:15.415Z,42.10
2017-04-10T12:03:15.377Z,42.70
2017-04-10T12:06:15.792Z,46.10
2017-04-10T12:07:15.810Z,46.90
2017-04-10T12:08:15.842Z,48.30
2017-04-10T12:09:16.573Z,50.10
2017-04-10T12:10:16.537Z,50.80
2017-04-10T12:11:18.557Z,51.00
2017-04-10T12:12:19.535Z,51.80
2017-04-10T12:13:19.544Z,52.20
2017-04-10T12:14:20.305Z,52.20
2017-04-10T12:15:20.367Z,52.10
2017-04-10T12:16:21.107Z,51.90
2017-04-10T12:17:21.853Z,51.90
2017-04-10T12:18:21.803Z,51.50
2017-04-10T12:19:21.829Z,50.80
2017-04-10T12:20:22.544Z,49.70
2017-04-10T12:21:22.532Z,48.20
2017-04-10T12:22:22.447Z,47.30
2017-04-10T12:23:22.410Z,47.00
2017-04-10T12:24:22.377Z,46.70
2017-04-10T12:25:25.378Z,45.70
2017-04-10T12:26:26.056Z,45.50
2017-04-10T12:27:25.988Z,44.70
2017-04-10T12:28:26.643Z,43.50
2017-04-10T12:29:26.612Z,41.40
2017-04-10T12:30:27.357Z,41.10
2017-04-10T12:31:28.060Z,40.70
2017-04-10T12:32:28.748Z,39.90
2017-04-10T12:33:28.710Z,40.00
2017-04-10T12:34:28.663Z,40.20
2017-04-10T12:35:28.624Z,40.50
2017-04-10T12:36:28.659Z,40.90
2017-04-10T12:37:28.737Z,40.50
2017-04-10T12:38:29.513Z,39.70
2017-04-10T12:39:29.498Z,39.70
2017-04-10T12:40:29.428Z,40.00
2017-04-10T12:41:29.404Z,40.10
2017-04-10T12:42:29.350Z,39.50
2017-04-10T12:43:29.589Z,38.50
2017-04-10T12:44:30.397Z,36.70
2017-04-10T12:45:30.623Z,35.30
2017-04-10T12:46:30.754Z,34.70
2017-04-10T12:47:30.874Z,34.00
2017-04-10T12:48:30.960Z,34.10
2017-04-10T12:49:32.113Z,35.10
2017-04-10T12:50:32.069Z,36.20
2017-04-10T12:51:32.825Z,37.50
2017-04-10T12:52:32.745Z,38.40
2017-04-10T12:53:32.647Z,39.40
2017-04-10T12:54:33.288Z,39.90
2017-04-10T12:55:33.268Z,41.00
2017-04-10T12:56:33.239Z,41.20
2017-04-10T12:57:33.173Z,41.10
2017-04-10T12:58:33.849Z,40.20
2017-04-10T12:59:33.751Z,39.30
2017-04-10T13:00:33.720Z,38.50
2017-04-10T13:01:33.798Z,37.60
2017-04-10T13:02:35.005Z,36.60
2017-04-10T13:03:34.965Z,36.00
2017-04-10T13:04:34.974Z,35.30
2017-04-10T13:05:34.997Z,34.80
2017-04-10T13:06:35.108Z,33.10
2017-04-10T13:07:35.104Z,32.70
2017-04-10T13:08:35.073Z,33.70
2017-04-10T13:09:35.803Z,34.50
2017-04-10T13:10:36.631Z,35.00
2017-04-10T13:11:37.364Z,35.90
2017-04-10T13:12:37.357Z,36.40
2017-04-10T13:13:37.338Z,37.00
2017-04-10T13:15:37.453Z,35.40
2017-04-10T13:16:37.462Z,34.00
2017-04-10T13:17:37.423Z,32.00
2017-04-10T13:18:37.374Z,30.00
2017-04-10T13:20:37.957Z,27.20
2017-04-10T13:21:38.004Z,26.10
2017-04-10T13:22:38.056Z,25.70
2017-04-10T13:23:38.155Z,25.10
2017-04-10T13:25:38.338Z,24.40
2017-04-10T13:27:39.256Z,25.50
2017-04-10T13:28:39.286Z,26.10
2017-04-10T13:29:39.281Z,26.50
2017-04-10T13:30:39.256Z,26.00